Aviation Digital Data Service (ADDS)

Output produced by METARs form (1548 UTC 12 December 2017)
found at http://www.aviationweather.gov/adds/metars/
 
METAR text: KDUJ 121543Z AUTO 31018G29KT 1/4SM -SN FZFG BKN008 OVC013 M03/M06 A2954 RMK AO2 PK WND 30029/1539 P0002 T10331056
Conditions at: KDUJ (DU BOIS , PA, US) observed 1543 UTC 12 December 2017
Temperature: -3.3°C (26°F)
Dewpoint: -5.6°C (22°F) [RH = 84%]
Pressure (altimeter): 29.54 inches Hg (1000.4 mb)
Winds: from the NW (310 degrees) at 21 MPH (18 knots; 9.4 m/s)
gusting to 33 MPH (29 knots; 15.1 m/s)
Visibility: 0.25 miles (0.40 km)
Ceiling: 800 feet AGL
Clouds: broken clouds at 800 feet AGL
overcast cloud deck at 1300 feet AGL
Weather: -SN FZFG  (light snow, freezing fog)

METAR text: KDUJ 121513Z AUTO 27009KT 3/4SM -SN BR OVC007 M02/M03 A2953 RMK AO2 CIG 005V012 P0001 T10171033
Conditions at: KDUJ (DU BOIS , PA, US) observed 1513 UTC 12 December 2017
Temperature: -1.7°C (29°F)
Dewpoint: -3.3°C (26°F) [RH = 89%]
Pressure (altimeter): 29.53 inches Hg (1000.1 mb)
Winds: from the W (270 degrees) at 10 MPH (9 knots; 4.7 m/s)
Visibility: 0.75 miles (1.21 km)
Ceiling: 700 feet AGL
Clouds: overcast cloud deck at 700 feet AGL
Weather: -SN BR  (light snow, mist)

METAR text: KDUJ 121503Z AUTO 27007KT 1SM -SN BR OVC007 M02/M03 A2953 RMK AO2 CIG 005V012 P0000 T10171033
Conditions at: KDUJ (DU BOIS , PA, US) observed 1503 UTC 12 December 2017
Temperature: -1.7°C (29°F)
Dewpoint: -3.3°C (26°F) [RH = 89%]
Pressure (altimeter): 29.53 inches Hg (1000.1 mb)
Winds: from the W (270 degrees) at 8 MPH (7 knots; 3.6 m/s)
Visibility: 1.00 miles (1.61 km)
Ceiling: 700 feet AGL
Clouds: overcast cloud deck at 700 feet AGL
Weather: -SN BR  (light snow, mist)

METAR text: KDUJ 121453Z AUTO 27011G20KT 2 1/2SM -SN BR OVC008 M02/M03 A2953 RMK AO2 SNE20B53 CIG 006V012 SLP016 P0000 60001 T10171033 51007
Conditions at: KDUJ (DU BOIS , PA, US) observed 1453 UTC 12 December 2017
Temperature: -1.7°C (29°F)
Dewpoint: -3.3°C (26°F) [RH = 89%]
Pressure (altimeter): 29.53 inches Hg (1000.1 mb)
[Sea-level pressure: 1001.6 mb]
Winds: from the W (270 degrees) at 13 MPH (11 knots; 5.7 m/s)
gusting to 23 MPH (20 knots; 10.4 m/s)
Visibility: 2.50 miles (4.02 km)
Ceiling: 800 feet AGL
Clouds: overcast cloud deck at 800 feet AGL
Weather: -SN BR  (light snow, mist)

METAR text: KDUJ 121448Z AUTO 27011G22KT 2 1/2SM BR OVC008 M02/M03 A2953 RMK AO2 SNE20 CIG 007V011 P0000
Conditions at: KDUJ (DU BOIS , PA, US) observed 1448 UTC 12 December 2017
Temperature: -2.0°C (28°F)
Dewpoint: -3.0°C (27°F) [RH = 93%]
Pressure (altimeter): 29.53 inches Hg (1000.1 mb)
Winds: from the W (270 degrees) at 13 MPH (11 knots; 5.7 m/s)
gusting to 25 MPH (22 knots; 11.4 m/s)
Visibility: 2.50 miles (4.02 km)
Ceiling: 800 feet AGL
Clouds: overcast cloud deck at 800 feet AGL
Weather: BR  (mist)

METAR text: KDUJ 121427Z AUTO 27010KT 4SM BR OVC009 M02/M03 A2952 RMK AO2 SNE20 CIG 006V013 P0000 T10171033
Conditions at: KDUJ (DU BOIS , PA, US) observed 1427 UTC 12 December 2017
Temperature: -1.7°C (29°F)
Dewpoint: -3.3°C (26°F) [RH = 89%]
Pressure (altimeter): 29.52 inches Hg (999.7 mb)
Winds: from the W (270 degrees) at 12 MPH (10 knots; 5.2 m/s)
Visibility: 4 miles (6 km)
Ceiling: 900 feet AGL
Clouds: overcast cloud deck at 900 feet AGL
Weather: BR  (mist)

METAR text: KDUJ 121418Z AUTO 26010KT 2 1/2SM -SN BR OVC007 M01/M03 A2952 RMK AO2 CIG 006V011 P0000 T10111033
Conditions at: KDUJ (DU BOIS , PA, US) observed 1418 UTC 12 December 2017
Temperature: -1.1°C (30°F)
Dewpoint: -3.3°C (26°F) [RH = 85%]
Pressure (altimeter): 29.52 inches Hg (999.7 mb)
Winds: from the W (260 degrees) at 12 MPH (10 knots; 5.2 m/s)
Visibility: 2.50 miles (4.02 km)
Ceiling: 700 feet AGL
Clouds: overcast cloud deck at 700 feet AGL
Weather: -SN BR  (light snow, mist)

METAR text: KDUJ 121353Z AUTO 26008KT 1 1/4SM -SN BR OVC007 M01/M03 A2952 RMK AO2 CIG 005V010 SLP013 P0001 T10111028
Conditions at: KDUJ (DU BOIS , PA, US) observed 1353 UTC 12 December 2017
Temperature: -1.1°C (30°F)
Dewpoint: -2.8°C (27°F) [RH = 88%]
Pressure (altimeter): 29.52 inches Hg (999.7 mb)
[Sea-level pressure: 1001.3 mb]
Winds: from the W (260 degrees) at 9 MPH (8 knots; 4.2 m/s)
Visibility: 1.25 miles (2.01 km)
Ceiling: 700 feet AGL
Clouds: overcast cloud deck at 700 feet AGL
Weather: -SN BR  (light snow, mist)

METAR text: KDUJ 121345Z AUTO 26010KT 1SM -SN BR OVC008 M01/M03 A2952 RMK AO2 CIG 005V010 P0001 T10111028
Conditions at: KDUJ (DU BOIS , PA, US) observed 1345 UTC 12 December 2017
Temperature: -1.1°C (30°F)
Dewpoint: -2.8°C (27°F) [RH = 88%]
Pressure (altimeter): 29.52 inches Hg (999.7 mb)
Winds: from the W (260 degrees) at 12 MPH (10 knots; 5.2 m/s)
Visibility: 1.00 miles (1.61 km)
Ceiling: 800 feet AGL
Clouds: overcast cloud deck at 800 feet AGL
Weather: -SN BR  (light snow, mist)

METAR text: KDUJ 121319Z AUTO 26013G17KT 3/4SM -SN BR BKN007 OVC012 M01/M03 A2951 RMK AO2 CIG 005V010 P0000 T10111028
Conditions at: KDUJ (DU BOIS , PA, US) observed 1319 UTC 12 December 2017
Temperature: -1.1°C (30°F)
Dewpoint: -2.8°C (27°F) [RH = 88%]
Pressure (altimeter): 29.51 inches Hg (999.4 mb)
Winds: from the W (260 degrees) at 15 MPH (13 knots; 6.8 m/s)
gusting to 20 MPH (17 knots; 8.8 m/s)
Visibility: 0.75 miles (1.21 km)
Ceiling: 700 feet AGL
Clouds: broken clouds at 700 feet AGL
overcast cloud deck at 1200 feet AGL
Weather: -SN BR  (light snow, mist)

METAR text: KDUJ 121306Z AUTO 27011KT 1 3/4SM -SN BR OVC007 M01/M03 A2951 RMK AO2 P0000 T10111028
Conditions at: KDUJ (DU BOIS , PA, US) observed 1306 UTC 12 December 2017
Temperature: -1.1°C (30°F)
Dewpoint: -2.8°C (27°F) [RH = 88%]
Pressure (altimeter): 29.51 inches Hg (999.4 mb)
Winds: from the W (270 degrees) at 13 MPH (11 knots; 5.7 m/s)
Visibility: 1.75 miles (2.82 km)
Ceiling: 700 feet AGL
Clouds: overcast cloud deck at 700 feet AGL
Weather: -SN BR  (light snow, mist)

METAR text: KDUJ 121253Z AUTO 26012KT 4SM -SN BR OVC007 M01/M03 A2951 RMK AO2 SNE24B44 CIG 006V011 SLP008 P0000 T10111028
Conditions at: KDUJ (DU BOIS , PA, US) observed 1253 UTC 12 December 2017
Temperature: -1.1°C (30°F)
Dewpoint: -2.8°C (27°F) [RH = 88%]
Pressure (altimeter): 29.51 inches Hg (999.4 mb)
[Sea-level pressure: 1000.8 mb]
Winds: from the W (260 degrees) at 14 MPH (12 knots; 6.2 m/s)
Visibility: 4 miles (6 km)
Ceiling: 700 feet AGL
Clouds: overcast cloud deck at 700 feet AGL
Weather: -SN BR  (light snow, mist)

METAR text: KDUJ 121153Z AUTO 27014G19KT 4SM -SN BR BKN008 OVC012 M01/M02 A2950 RMK AO2 CIG 005V011 SLP004 P0000 60007 70007 T10061022 10022 21006 53001
Conditions at: KDUJ (DU BOIS , PA, US) observed 1153 UTC 12 December 2017
Temperature: -0.6°C (31°F)
Dewpoint: -2.2°C (28°F) [RH = 89%]
Pressure (altimeter): 29.50 inches Hg (999.1 mb)
[Sea-level pressure: 1000.4 mb]
Winds: from the W (270 degrees) at 16 MPH (14 knots; 7.3 m/s)
gusting to 22 MPH (19 knots; 9.9 m/s)
Visibility: 4 miles (6 km)
Ceiling: 800 feet AGL
Clouds: broken clouds at 800 feet AGL
overcast cloud deck at 1200 feet AGL
Weather: -SN BR  (light snow, mist)

METAR text: KDUJ 121101Z AUTO 24014G21KT 3SM -SN BR OVC005 00/M02 A2948 RMK AO2 CIG 004V008 P0000 T00001017
Conditions at: KDUJ (DU BOIS , PA, US) observed 1101 UTC 12 December 2017
Temperature: 0.0°C (32°F)
Dewpoint: -1.7°C (29°F) [RH = 88%]
Pressure (altimeter): 29.48 inches Hg (998.4 mb)
Winds: from the WSW (240 degrees) at 16 MPH (14 knots; 7.3 m/s)
gusting to 24 MPH (21 knots; 10.9 m/s)
Visibility: 3 miles (5 km)
Ceiling: 500 feet AGL
Clouds: overcast cloud deck at 500 feet AGL
Weather: -SN BR  (light snow, mist)

METAR text: KDUJ 121053Z AUTO 22012KT 1 1/2SM -SN BR OVC005 00/M01 A2948 RMK AO2 SLP998 P0001 T00001011
Conditions at: KDUJ (DU BOIS , PA, US) observed 1053 UTC 12 December 2017
Temperature: 0.0°C (32°F)
Dewpoint: -1.1°C (30°F) [RH = 92%]
Pressure (altimeter): 29.48 inches Hg (998.4 mb)
[Sea-level pressure: 999.8 mb]
Winds: from the SW (220 degrees) at 14 MPH (12 knots; 6.2 m/s)
Visibility: 1.50 miles (2.41 km)
Ceiling: 500 feet AGL
Clouds: overcast cloud deck at 500 feet AGL
Weather: -SN BR  (light snow, mist)

METAR text: KDUJ 121033Z AUTO 23013G21KT 1 1/2SM -SN BR OVC005 00/M01 A2948 RMK AO2 CIG 003V008 P0001 T00001011
Conditions at: KDUJ (DU BOIS , PA, US) observed 1033 UTC 12 December 2017
Temperature: 0.0°C (32°F)
Dewpoint: -1.1°C (30°F) [RH = 92%]
Pressure (altimeter): 29.48 inches Hg (998.4 mb)
Winds: from the SW (230 degrees) at 15 MPH (13 knots; 6.8 m/s)
gusting to 24 MPH (21 knots; 10.9 m/s)
Visibility: 1.50 miles (2.41 km)
Ceiling: 500 feet AGL
Clouds: overcast cloud deck at 500 feet AGL
Weather: -SN BR  (light snow, mist)

METAR text: KDUJ 121020Z AUTO 23013G22KT 3/4SM -SN BR OVC005 00/M01 A2948 RMK AO2 P0001 T00001011
Conditions at: KDUJ (DU BOIS , PA, US) observed 1020 UTC 12 December 2017
Temperature: 0.0°C (32°F)
Dewpoint: -1.1°C (30°F) [RH = 92%]
Pressure (altimeter): 29.48 inches Hg (998.4 mb)
Winds: from the SW (230 degrees) at 15 MPH (13 knots; 6.8 m/s)
gusting to 25 MPH (22 knots; 11.4 m/s)
Visibility: 0.75 miles (1.21 km)
Ceiling: 500 feet AGL
Clouds: overcast cloud deck at 500 feet AGL
Weather: -SN BR  (light snow, mist)

METAR text: KDUJ 121012Z AUTO 23015G22KT 1/2SM SN FG OVC003 00/M01 A2948 RMK AO2 P0001 T00001011
Conditions at: KDUJ (DU BOIS , PA, US) observed 1012 UTC 12 December 2017
Temperature: 0.0°C (32°F)
Dewpoint: -1.1°C (30°F) [RH = 92%]
Pressure (altimeter): 29.48 inches Hg (998.4 mb)
Winds: from the SW (230 degrees) at 17 MPH (15 knots; 7.8 m/s)
gusting to 25 MPH (22 knots; 11.4 m/s)
Visibility: 0.50 miles (0.80 km)
Ceiling: 300 feet AGL
Clouds: overcast cloud deck at 300 feet AGL
Weather: SN FG  (snow, fog)

METAR text: KDUJ 121004Z AUTO 23013KT 1/4SM SN FG OVC003 00/M01 A2948 RMK AO2 P0001 T00001011
Conditions at: KDUJ (DU BOIS , PA, US) observed 1004 UTC 12 December 2017
Temperature: 0.0°C (32°F)
Dewpoint: -1.1°C (30°F) [RH = 92%]
Pressure (altimeter): 29.48 inches Hg (998.4 mb)
Winds: from the SW (230 degrees) at 15 MPH (13 knots; 6.8 m/s)
Visibility: 0.25 miles (0.40 km)
Ceiling: 300 feet AGL
Clouds: overcast cloud deck at 300 feet AGL
Weather: SN FG  (snow, fog)

METAR text: KDUJ 120953Z AUTO 22012KT 1/2SM SN FG OVC004 00/M01 A2948 RMK AO2 SLP997 P0006 T00001011
Conditions at: KDUJ (DU BOIS , PA, US) observed 0953 UTC 12 December 2017
Temperature: 0.0°C (32°F)
Dewpoint: -1.1°C (30°F) [RH = 92%]
Pressure (altimeter): 29.48 inches Hg (998.4 mb)
[Sea-level pressure: 999.7 mb]
Winds: from the SW (220 degrees) at 14 MPH (12 knots; 6.2 m/s)
Visibility: 0.50 miles (0.80 km)
Ceiling: 400 feet AGL
Clouds: overcast cloud deck at 400 feet AGL
Weather: SN FG  (snow, fog)

METAR text: KDUJ 120942Z AUTO 23008KT 1/2SM -SN FG OVC004 00/M01 A2948 RMK AO2 P0004 T00001011
Conditions at: KDUJ (DU BOIS , PA, US) observed 0942 UTC 12 December 2017
Temperature: 0.0°C (32°F)
Dewpoint: -1.1°C (30°F) [RH = 92%]
Pressure (altimeter): 29.48 inches Hg (998.4 mb)
Winds: from the SW (230 degrees) at 9 MPH (8 knots; 4.2 m/s)
Visibility: 0.50 miles (0.80 km)
Ceiling: 400 feet AGL
Clouds: overcast cloud deck at 400 feet AGL
Weather: -SN FG  (light snow, fog)

METAR text: KDUJ 120922Z AUTO 22007KT 1/2SM -SN FG SCT005 BKN009 OVC015 00/M01 A2948 RMK AO2 P0001 T00001011
Conditions at: KDUJ (DU BOIS , PA, US) observed 0922 UTC 12 December 2017
Temperature: 0.0°C (32°F)
Dewpoint: -1.1°C (30°F) [RH = 92%]
Pressure (altimeter): 29.48 inches Hg (998.4 mb)
Winds: from the SW (220 degrees) at 8 MPH (7 knots; 3.6 m/s)
Visibility: 0.50 miles (0.80 km)
Ceiling: 900 feet AGL
Clouds: scattered clouds at 500 feet AGL
broken clouds at 900 feet AGL
overcast cloud deck at 1500 feet AGL
Weather: -SN FG  (light snow, fog)

METAR text: KDUJ 120911Z AUTO 22004KT 3/4SM -SN BR FEW008 BKN015 OVC020 00/M02 A2948 RMK AO2 P0000 T00001017
Conditions at: KDUJ (DU BOIS , PA, US) observed 0911 UTC 12 December 2017
Temperature: 0.0°C (32°F)
Dewpoint: -1.7°C (29°F) [RH = 88%]
Pressure (altimeter): 29.48 inches Hg (998.4 mb)
Winds: from the SW (220 degrees) at 5 MPH (4 knots; 2.1 m/s)
Visibility: 0.75 miles (1.21 km)
Ceiling: 1500 feet AGL
Clouds: few clouds at 800 feet AGL
broken clouds at 1500 feet AGL
overcast cloud deck at 2000 feet AGL
Weather: -SN BR  (light snow, mist)

METAR text: KDUJ 120853Z AUTO 23008KT 1 1/4SM -SN OVC020 01/M02 A2949 RMK AO2 SNB32 SLP002 P0000 60000 T00061022 56029
Conditions at: KDUJ (DU BOIS , PA, US) observed 0853 UTC 12 December 2017
Temperature: 0.6°C (33°F)
Dewpoint: -2.2°C (28°F) [RH = 81%]
Pressure (altimeter): 29.49 inches Hg (998.7 mb)
[Sea-level pressure: 1000.2 mb]
Winds: from the SW (230 degrees) at 9 MPH (8 knots; 4.2 m/s)
Visibility: 1.25 miles (2.01 km)
Ceiling: 2000 feet AGL
Clouds: overcast cloud deck at 2000 feet AGL
Weather: -SN  (light snow)

METAR text: KDUJ 120840Z AUTO 22009KT 1 3/4SM -SN OVC022 01/M03 A2950 RMK AO2 SNB32 P0000 T00111033
Conditions at: KDUJ (DU BOIS , PA, US) observed 0840 UTC 12 December 2017
Temperature: 1.1°C (34°F)
Dewpoint: -3.3°C (26°F) [RH = 72%]
Pressure (altimeter): 29.50 inches Hg (999.1 mb)
Winds: from the SW (220 degrees) at 10 MPH (9 knots; 4.7 m/s)
Visibility: 1.75 miles (2.82 km)
Ceiling: 2200 feet AGL
Clouds: overcast cloud deck at 2200 feet AGL
Weather: -SN  (light snow)

METAR text: KDUJ 120828Z AUTO 23008KT 6SM HZ BKN026 BKN031 OVC038 02/M05 A2951 RMK AO2 T00171050
Conditions at: KDUJ (DU BOIS , PA, US) observed 0828 UTC 12 December 2017
Temperature: 1.7°C (35°F)
Dewpoint: -5.0°C (23°F) [RH = 61%]
Pressure (altimeter): 29.51 inches Hg (999.4 mb)
Winds: from the SW (230 degrees) at 9 MPH (8 knots; 4.2 m/s)
Visibility: 6 miles (10 km)
Ceiling: 2600 feet AGL
Clouds: broken clouds at 2600 feet AGL
broken clouds at 3100 feet AGL
overcast cloud deck at 3800 feet AGL
Weather: HZ  (haze)

METAR text: KDUJ 120753Z AUTO 13004KT 10SM OVC060 01/M06 A2951 RMK AO2 SLP008 T00111056
Conditions at: KDUJ (DU BOIS , PA, US) observed 0753 UTC 12 December 2017
Temperature: 1.1°C (34°F)
Dewpoint: -5.6°C (22°F) [RH = 61%]
Pressure (altimeter): 29.51 inches Hg (999.4 mb)
[Sea-level pressure: 1000.8 mb]
Winds: from the SE (130 degrees) at 5 MPH (4 knots; 2.1 m/s)
Visibility: 10 or more miles (16+ km)
Ceiling: 6000 feet AGL
Clouds: overcast cloud deck at 6000 feet AGL
Weather: automated observation with no human augmentation;
there may or may not be significant weather present at this time

METAR text: KDUJ 120653Z AUTO 11008KT 10SM OVC049 01/M06 A2954 RMK AO2 SLP019 T00111061
Conditions at: KDUJ (DU BOIS , PA, US) observed 0653 UTC 12 December 2017
Temperature: 1.1°C (34°F)
Dewpoint: -6.1°C (21°F) [RH = 59%]
Pressure (altimeter): 29.54 inches Hg (1000.4 mb)
[Sea-level pressure: 1001.9 mb]
Winds: from the ESE (110 degrees) at 9 MPH (8 knots; 4.2 m/s)
Visibility: 10 or more miles (16+ km)
Ceiling: 4900 feet AGL
Clouds: overcast cloud deck at 4900 feet AGL
Weather: automated observation with no human augmentation;
there may or may not be significant weather present at this time

METAR text: KDUJ 120553Z AUTO 12007KT 10SM OVC050 01/M06 A2958 RMK AO2 SLP033 T00111061 10011 21011 58039
Conditions at: KDUJ (DU BOIS , PA, US) observed 0553 UTC 12 December 2017
Temperature: 1.1°C (34°F)
Dewpoint: -6.1°C (21°F) [RH = 59%]
Pressure (altimeter): 29.58 inches Hg (1001.8 mb)
[Sea-level pressure: 1003.3 mb]
Winds: from the ESE (120 degrees) at 8 MPH (7 knots; 3.6 m/s)
Visibility: 10 or more miles (16+ km)
Ceiling: 5000 feet AGL
Clouds: overcast cloud deck at 5000 feet AGL
Weather: automated observation with no human augmentation;
there may or may not be significant weather present at this time

METAR text: KDUJ 120453Z AUTO 14009G15KT 10SM OVC043 01/M07 A2963 RMK AO2 SLP050 T00111067 400111039
Conditions at: KDUJ (DU BOIS , PA, US) observed 0453 UTC 12 December 2017
Temperature: 1.1°C (34°F)
Dewpoint: -6.7°C (20°F) [RH = 56%]
Pressure (altimeter): 29.63 inches Hg (1003.5 mb)
[Sea-level pressure: 1005.0 mb]
Winds: from the SE (140 degrees) at 10 MPH (9 knots; 4.7 m/s)
gusting to 17 MPH (15 knots; 7.8 m/s)
Visibility: 10 or more miles (16+ km)
Ceiling: 4300 feet AGL
Clouds: overcast cloud deck at 4300 feet AGL
Weather: automated observation with no human augmentation;
there may or may not be significant weather present at this time

METAR text: KDUJ 120353Z AUTO 14008KT 10SM SCT048 BKN070 OVC120 01/M07 A2966 RMK AO2 SLP062 T00061067
Conditions at: KDUJ (DU BOIS , PA, US) observed 0353 UTC 12 December 2017
Temperature: 0.6°C (33°F)
Dewpoint: -6.7°C (20°F) [RH = 58%]
Pressure (altimeter): 29.66 inches Hg (1004.5 mb)
[Sea-level pressure: 1006.2 mb]
Winds: from the SE (140 degrees) at 9 MPH (8 knots; 4.2 m/s)
Visibility: 10 or more miles (16+ km)
Ceiling: 7000 feet AGL
Clouds: scattered clouds at 4800 feet AGL
broken clouds at 7000 feet AGL
overcast cloud deck at 12000 feet AGL
Weather: automated observation with no human augmentation;
there may or may not be significant weather present at this time

METAR text: KDUJ 120253Z AUTO 13006KT 10SM BKN045 OVC060 00/M07 A2971 RMK AO2 SLP077 T00001067 56031
Conditions at: KDUJ (DU BOIS , PA, US) observed 0253 UTC 12 December 2017
Temperature: 0.0°C (32°F)
Dewpoint: -6.7°C (20°F) [RH = 61%]
Pressure (altimeter): 29.71 inches Hg (1006.2 mb)
[Sea-level pressure: 1007.7 mb]
Winds: from the SE (130 degrees) at 7 MPH (6 knots; 3.1 m/s)
Visibility: 10 or more miles (16+ km)
Ceiling: 4500 feet AGL
Clouds: broken clouds at 4500 feet AGL
overcast cloud deck at 6000 feet AGL
Weather: automated observation with no human augmentation;
there may or may not be significant weather present at this time

METAR text: KDUJ 120153Z AUTO 13005KT 10SM OVC050 M01/M07 A2974 RMK AO2 SLP090 T10061067
Conditions at: KDUJ (DU BOIS , PA, US) observed 0153 UTC 12 December 2017
Temperature: -0.6°C (31°F)
Dewpoint: -6.7°C (20°F) [RH = 63%]
Pressure (altimeter): 29.74 inches Hg (1007.2 mb)
[Sea-level pressure: 1009.0 mb]
Winds: from the SE (130 degrees) at 6 MPH (5 knots; 2.6 m/s)
Visibility: 10 or more miles (16+ km)
Ceiling: 5000 feet AGL
Clouds: overcast cloud deck at 5000 feet AGL
Weather: automated observation with no human augmentation;
there may or may not be significant weather present at this time

METAR text: KDUJ 120053Z AUTO 14005KT 10SM SCT050 BKN065 OVC095 M01/M07 A2976 RMK AO2 SLP097 T10061072
Conditions at: KDUJ (DU BOIS , PA, US) observed 0053 UTC 12 December 2017
Temperature: -0.6°C (31°F)
Dewpoint: -7.2°C (19°F) [RH = 61%]
Pressure (altimeter): 29.76 inches Hg (1007.9 mb)
[Sea-level pressure: 1009.7 mb]
Winds: from the SE (140 degrees) at 6 MPH (5 knots; 2.6 m/s)
Visibility: 10 or more miles (16+ km)
Ceiling: 6500 feet AGL
Clouds: scattered clouds at 5000 feet AGL
broken clouds at 6500 feet AGL
overcast cloud deck at 9500 feet AGL
Weather: automated observation with no human augmentation;
there may or may not be significant weather present at this time

METAR text: KDUJ 112353Z AUTO 00000KT 10SM FEW036 OVC055 M01/M07 A2980 RMK AO2 SLP111 T10111072 11006 21022 56017
Conditions at: KDUJ (DU BOIS , PA, US) observed 2353 UTC 11 December 2017
Temperature: -1.1°C (30°F)
Dewpoint: -7.2°C (19°F) [RH = 63%]
Pressure (altimeter): 29.80 inches Hg (1009.2 mb)
[Sea-level pressure: 1011.1 mb]
Winds: calm
Visibility: 10 or more miles (16+ km)
Ceiling: 5500 feet AGL
Clouds: few clouds at 3600 feet AGL
overcast cloud deck at 5500 feet AGL
Weather: automated observation with no human augmentation;
there may or may not be significant weather present at this time

METAR text: KDUJ 112253Z AUTO 00000KT 10SM OVC065 M01/M07 A2981 RMK AO2 SLP115 T10111072
Conditions at: KDUJ (DU BOIS , PA, US) observed 2253 UTC 11 December 2017
Temperature: -1.1°C (30°F)
Dewpoint: -7.2°C (19°F) [RH = 63%]
Pressure (altimeter): 29.81 inches Hg (1009.6 mb)
[Sea-level pressure: 1011.5 mb]
Winds: calm
Visibility: 10 or more miles (16+ km)
Ceiling: 6500 feet AGL
Clouds: overcast cloud deck at 6500 feet AGL
Weather: automated observation with no human augmentation;
there may or may not be significant weather present at this time

METAR text: KDUJ 112153Z AUTO 00000KT 10SM OVC070 M01/M08 A2983 RMK AO2 SLP123 T10111078
Conditions at: KDUJ (DU BOIS , PA, US) observed 2153 UTC 11 December 2017
Temperature: -1.1°C (30°F)
Dewpoint: -7.8°C (18°F) [RH = 60%]
Pressure (altimeter): 29.83 inches Hg (1010.2 mb)
[Sea-level pressure: 1012.3 mb]
Winds: calm
Visibility: 10 or more miles (16+ km)
Ceiling: 7000 feet AGL
Clouds: overcast cloud deck at 7000 feet AGL
Weather: automated observation with no human augmentation;
there may or may not be significant weather present at this time

METAR text: KDUJ 112053Z AUTO 18006KT 10SM OVC065 M01/M08 A2985 RMK AO2 SLP129 T10061078 56020
Conditions at: KDUJ (DU BOIS , PA, US) observed 2053 UTC 11 December 2017
Temperature: -0.6°C (31°F)
Dewpoint: -7.8°C (18°F) [RH = 58%]
Pressure (altimeter): 29.85 inches Hg (1010.9 mb)
[Sea-level pressure: 1012.9 mb]
Winds: from the S (180 degrees) at 7 MPH (6 knots; 3.1 m/s)
Visibility: 10 or more miles (16+ km)
Ceiling: 6500 feet AGL
Clouds: overcast cloud deck at 6500 feet AGL
Weather: automated observation with no human augmentation;
there may or may not be significant weather present at this time

METAR text: KDUJ 111953Z AUTO 18003KT 10SM SCT032 OVC070 M01/M08 A2987 RMK AO2 SLP136 T10111078
Conditions at: KDUJ (DU BOIS , PA, US) observed 1953 UTC 11 December 2017
Temperature: -1.1°C (30°F)
Dewpoint: -7.8°C (18°F) [RH = 60%]
Pressure (altimeter): 29.87 inches Hg (1011.6 mb)
[Sea-level pressure: 1013.6 mb]
Winds: from the S (180 degrees) at 3 MPH (3 knots; 1.6 m/s)
Visibility: 10 or more miles (16+ km)
Ceiling: 7000 feet AGL
Clouds: scattered clouds at 3200 feet AGL
overcast cloud deck at 7000 feet AGL
Weather: automated observation with no human augmentation;
there may or may not be significant weather present at this time

METAR text: KDUJ 111914Z AUTO 20005KT 10SM OVC031 M01/M08 A2989 RMK AO2 T10111078
Conditions at: KDUJ (DU BOIS , PA, US) observed 1914 UTC 11 December 2017
Temperature: -1.1°C (30°F)
Dewpoint: -7.8°C (18°F) [RH = 60%]
Pressure (altimeter): 29.89 inches Hg (1012.3 mb)
Winds: from the SSW (200 degrees) at 6 MPH (5 knots; 2.6 m/s)
Visibility: 10 or more miles (16+ km)
Ceiling: 3100 feet AGL
Clouds: overcast cloud deck at 3100 feet AGL
Weather: automated observation with no human augmentation;
there may or may not be significant weather present at this time

METAR text: KDUJ 111853Z AUTO VRB05KT 10SM OVC029 M02/M08 A2989 RMK AO2 SLP144 T10171083
Conditions at: KDUJ (DU BOIS , PA, US) observed 1853 UTC 11 December 2017
Temperature: -1.7°C (29°F)
Dewpoint: -8.3°C (17°F) [RH = 61%]
Pressure (altimeter): 29.89 inches Hg (1012.3 mb)
[Sea-level pressure: 1014.4 mb]
Winds: variable direction winds at 6 MPH (5 knots; 2.6 m/s)
Visibility: 10 or more miles (16+ km)
Ceiling: 2900 feet AGL
Clouds: overcast cloud deck at 2900 feet AGL
Weather: automated observation with no human augmentation;
there may or may not be significant weather present at this time

METAR text: KDUJ 111753Z AUTO 24007KT 10SM OVC024 M02/M08 A2992 RMK AO2 SLP152 T10171078 11017 21039 58015
Conditions at: KDUJ (DU BOIS , PA, US) observed 1753 UTC 11 December 2017
Temperature: -1.7°C (29°F)
Dewpoint: -7.8°C (18°F) [RH = 63%]
Pressure (altimeter): 29.92 inches Hg (1013.3 mb)
[Sea-level pressure: 1015.2 mb]
Winds: from the WSW (240 degrees) at 8 MPH (7 knots; 3.6 m/s)
Visibility: 10 or more miles (16+ km)
Ceiling: 2400 feet AGL
Clouds: overcast cloud deck at 2400 feet AGL
Weather: automated observation with no human augmentation;
there may or may not be significant weather present at this time

METAR text: KDUJ 111653Z AUTO 26010KT 10SM OVC024 M02/M08 A2994 RMK AO2 SLP159 T10221083
Conditions at: KDUJ (DU BOIS , PA, US) observed 1653 UTC 11 December 2017
Temperature: -2.2°C (28°F)
Dewpoint: -8.3°C (17°F) [RH = 63%]
Pressure (altimeter): 29.94 inches Hg (1014.0 mb)
[Sea-level pressure: 1015.9 mb]
Winds: from the W (260 degrees) at 12 MPH (10 knots; 5.2 m/s)
Visibility: 10 or more miles (16+ km)
Ceiling: 2400 feet AGL
Clouds: overcast cloud deck at 2400 feet AGL
Weather: automated observation with no human augmentation;
there may or may not be significant weather present at this time

METAR text: KDUJ 111553Z AUTO 24008KT 10SM OVC024 M02/M07 A2995 RMK AO2 SLP164 T10221072
Conditions at: KDUJ (DU BOIS , PA, US) observed 1553 UTC 11 December 2017
Temperature: -2.2°C (28°F)
Dewpoint: -7.2°C (19°F) [RH = 69%]
Pressure (altimeter): 29.95 inches Hg (1014.3 mb)
[Sea-level pressure: 1016.4 mb]
Winds: from the WSW (240 degrees) at 9 MPH (8 knots; 4.2 m/s)
Visibility: 10 or more miles (16+ km)
Ceiling: 2400 feet AGL
Clouds: overcast cloud deck at 2400 feet AGL
Weather: automated observation with no human augmentation;
there may or may not be significant weather present at this time